sensor_id;sensor_type;location;lat;lon;timestamp;pressure;altitude;pressure_sealevel;temperature;humidity
64844;BME280;51310;52.198;5.422;2023-08-12T00:00:32;101623.91;;;19.55;81.56
64844;BME280;51310;52.198;5.422;2023-08-12T00:02:58;101623.78;;;19.57;81.70
64844;BME280;51310;52.198;5.422;2023-08-12T00:05:24;101625.78;;;19.55;81.53
64844;BME280;51310;52.198;5.422;2023-08-12T00:07:50;101600.88;;;19.40;81.44
64844;BME280;51310;52.198;5.422;2023-08-12T00:10:16;101626.03;;;19.52;81.60
64844;BME280;51310;52.198;5.422;2023-08-12T00:12:42;101632.19;;;19.54;81.79
64844;BME280;51310;52.198;5.422;2023-08-12T00:15:09;101618.19;;;19.49;81.88
64844;BME280;51310;52.198;5.422;2023-08-12T00:17:36;101607.31;;;19.39;81.87
64844;BME280;51310;52.198;5.422;2023-08-12T00:20:06;101619.44;;;19.45;81.99
64844;BME280;51310;52.198;5.422;2023-08-12T00:22:35;101595.69;;;19.27;81.97
64844;BME280;51310;52.198;5.422;2023-08-12T00:25:02;101621.28;;;19.44;82.18
64844;BME280;51310;52.198;5.422;2023-08-12T00:27:28;101623.00;;;19.45;81.93
64844;BME280;51310;52.198;5.422;2023-08-12T00:29:54;101617.44;;;19.47;82.11
64844;BME280;51310;52.198;5.422;2023-08-12T00:32:20;101622.44;;;19.42;82.04
64844;BME280;51310;52.198;5.422;2023-08-12T00:34:46;101597.13;;;19.31;82.17
64844;BME280;51310;52.198;5.422;2023-08-12T00:37:12;101612.31;;;19.44;82.03
64844;BME280;51310;52.198;5.422;2023-08-12T00:39:38;101588.00;;;19.32;82.28
64844;BME280;51310;52.198;5.422;2023-08-12T00:42:04;101606.16;;;19.42;82.17
64844;BME280;51310;52.198;5.422;2023-08-12T00:44:30;101606.59;;;19.47;82.29
64844;BME280;51310;52.198;5.422;2023-08-12T00:46:56;101595.75;;;19.47;82.49
64844;BME280;51310;52.198;5.422;2023-08-12T00:49:23;101593.19;;;19.45;82.35
64844;BME280;51310;52.198;5.422;2023-08-12T00:51:50;101585.94;;;19.46;82.39
64844;BME280;51310;52.198;5.422;2023-08-12T00:54:19;101586.91;;;19.45;82.32
64844;BME280;51310;52.198;5.422;2023-08-12T00:56:49;101575.50;;;19.41;82.36
64844;BME280;51310;52.198;5.422;2023-08-12T00:59:17;101584.34;;;19.43;82.35
64844;BME280;51310;52.198;5.422;2023-08-12T01:01:46;101557.75;;;19.27;82.24
64844;BME280;51310;52.198;5.422;2023-08-12T01:04:13;101578.75;;;19.35;82.34
64844;BME280;51310;52.198;5.422;2023-08-12T01:06:39;101558.13;;;19.23;82.67
64844;BME280;51310;52.198;5.422;2023-08-12T01:09:06;101562.25;;;19.17;82.94
64844;BME280;51310;52.198;5.422;2023-08-12T01:12:11;101569.13;;;19.21;82.87
64844;BME280;51310;52.198;5.422;2023-08-12T01:15:17;101563.09;;;19.18;82.95
64844;BME280;51310;52.198;5.422;2023-08-12T01:17:47;101568.50;;;19.08;83.37
64844;BME280;51310;52.198;5.422;2023-08-12T01:20:20;101552.31;;;18.97;83.43
64844;BME280;51310;52.198;5.422;2023-08-12T01:23:14;101567.03;;;19.04;83.36
64844;BME280;51310;52.198;5.422;2023-08-12T01:25:43;101555.59;;;19.00;83.40
64844;BME280;51310;52.198;5.422;2023-08-12T01:28:09;101570.03;;;19.01;83.83
64844;BME280;51310;52.198;5.422;2023-08-12T01:33:54;101564.59;;;19.01;83.83
64844;BME280;51310;52.198;5.422;2023-08-12T01:36:24;101560.16;;;19.00;84.00
64844;BME280;51310;52.198;5.422;2023-08-12T01:38:55;101555.75;;;18.99;83.98
64844;BME280;51310;52.198;5.422;2023-08-12T01:41:25;101528.47;;;18.90;84.19
64844;BME280;51310;52.198;5.422;2023-08-12T01:43:51;101540.47;;;18.98;83.95
64844;BME280;51310;52.198;5.422;2023-08-12T01:46:18;101516.91;;;18.88;84.28
64844;BME280;51310;52.198;5.422;2023-08-12T01:48:44;101522.78;;;18.93;84.38
64844;BME280;51310;52.198;5.422;2023-08-12T01:51:11;101529.09;;;19.04;84.34
64844;BME280;51310;52.198;5.422;2023-08-12T01:53:37;101526.53;;;19.02;84.21
64844;BME280;51310;52.198;5.422;2023-08-12T01:56:03;101539.09;;;19.03;84.25
64844;BME280;51310;52.198;5.422;2023-08-12T01:58:29;101532.22;;;18.99;84.17
64844;BME280;51310;52.198;5.422;2023-08-12T02:00:55;101511.03;;;18.83;84.46
64844;BME280;51310;52.198;5.422;2023-08-12T02:03:21;101503.78;;;18.84;84.64
64844;BME280;51310;52.198;5.422;2023-08-12T02:05:47;101515.97;;;18.99;84.35
64844;BME280;51310;52.198;5.422;2023-08-12T02:08:13;101511.28;;;19.01;84.59
64844;BME280;51310;52.198;5.422;2023-08-12T02:10:39;101477.28;;;18.87;84.41
64844;BME280;51310;52.198;5.422;2023-08-12T02:13:05;101512.56;;;19.07;84.72
64844;BME280;51310;52.198;5.422;2023-08-12T02:15:31;101504.84;;;19.02;84.59
64844;BME280;51310;52.198;5.422;2023-08-12T02:17:57;101513.72;;;19.04;84.66
64844;BME280;51310;52.198;5.422;2023-08-12T02:20:24;101506.00;;;19.00;84.47
64844;BME280;51310;52.198;5.422;2023-08-12T02:22:50;101502.03;;;19.04;84.82
64844;BME280;51310;52.198;5.422;2023-08-12T02:25:16;101486.06;;;19.01;84.53
64844;BME280;51310;52.198;5.422;2023-08-12T02:27:42;101506.63;;;19.13;84.36
64844;BME280;51310;52.198;5.422;2023-08-12T02:30:08;101499.81;;;19.19;84.32
64844;BME280;51310;52.198;5.422;2023-08-12T02:32:34;101497.66;;;19.22;84.42
64844;BME280;51310;52.198;5.422;2023-08-12T02:35:00;101495.81;;;19.23;84.25
64844;BME280;51310;52.198;5.422;2023-08-12T02:37:26;101465.44;;;19.19;84.18
64844;BME280;51310;52.198;5.422;2023-08-12T02:39:52;101476.53;;;19.16;83.94
64844;BME280;51310;52.198;5.422;2023-08-12T02:42:18;101493.41;;;19.29;83.82
64844;BME280;51310;52.198;5.422;2023-08-12T02:44:43;101470.13;;;19.17;84.18
64844;BME280;51310;52.198;5.422;2023-08-12T02:47:09;101472.44;;;19.22;84.18
64844;BME280;51310;52.198;5.422;2023-08-12T02:49:35;101489.59;;;19.32;83.81
64844;BME280;51310;52.198;5.422;2023-08-12T02:52:01;101495.88;;;19.32;84.02
64844;BME280;51310;52.198;5.422;2023-08-12T02:54:28;101468.72;;;19.23;84.24
64844;BME280;51310;52.198;5.422;2023-08-12T02:56:54;101474.75;;;19.36;83.88
64844;BME280;51310;52.198;5.422;2023-08-12T02:59:20;101457.03;;;19.22;83.93
64844;BME280;51310;52.198;5.422;2023-08-12T03:01:46;101475.47;;;19.38;84.06
64844;BME280;51310;52.198;5.422;2023-08-12T03:04:12;101448.63;;;19.25;83.84
64844;BME280;51310;52.198;5.422;2023-08-12T03:06:38;101454.91;;;19.26;84.13
64844;BME280;51310;52.198;5.422;2023-08-12T03:09:04;101455.06;;;19.34;84.17
64844;BME280;51310;52.198;5.422;2023-08-12T03:11:30;101443.47;;;19.22;84.22
64844;BME280;51310;52.198;5.422;2023-08-12T03:13:56;101464.06;;;19.34;84.15
64844;BME280;51310;52.198;5.422;2023-08-12T03:16:22;101444.91;;;19.26;84.49
64844;BME280;51310;52.198;5.422;2023-08-12T03:18:48;101444.19;;;19.24;84.38
64844;BME280;51310;52.198;5.422;2023-08-12T03:21:14;101458.66;;;19.34;84.29
64844;BME280;51310;52.198;5.422;2023-08-12T03:23:40;101450.22;;;19.38;84.33
64844;BME280;51310;52.198;5.422;2023-08-12T03:26:06;101455.66;;;19.38;84.51
64844;BME280;51310;52.198;5.422;2023-08-12T03:28:32;101454.38;;;19.42;84.53
64844;BME280;51310;52.198;5.422;2023-08-12T03:30:58;101447.94;;;19.43;84.25
64844;BME280;51310;52.198;5.422;2023-08-12T03:33:24;101437.53;;;19.38;84.33
64844;BME280;51310;52.198;5.422;2023-08-12T03:35:50;101432.53;;;19.33;84.52
64844;BME280;51310;52.198;5.422;2023-08-12T03:38:16;101441.81;;;19.41;84.39
64844;BME280;51310;52.198;5.422;2023-08-12T03:40:42;101429.25;;;19.40;84.78
64844;BME280;51310;52.198;5.422;2023-08-12T03:43:08;101430.28;;;19.39;84.41
64844;BME280;51310;52.198;5.422;2023-08-12T03:45:44;101429.25;;;19.40;84.82
64844;BME280;51310;52.198;5.422;2023-08-12T03:48:11;101428.84;;;19.34;84.87
64844;BME280;51310;52.198;5.422;2023-08-12T03:50:38;101410.53;;;19.27;84.69
64844;BME280;51310;52.198;5.422;2023-08-12T03:53:05;101426.84;;;19.37;85.03
64844;BME280;51310;52.198;5.422;2023-08-12T03:55:32;101412.84;;;19.31;84.90
64844;BME280;51310;52.198;5.422;2023-08-12T03:58:00;101427.09;;;19.33;85.14
64844;BME280;51310;52.198;5.422;2023-08-12T04:00:26;101417.13;;;19.34;85.37
64844;BME280;51310;52.198;5.422;2023-08-12T04:02:53;101400.41;;;19.29;85.17
64844;BME280;51310;52.198;5.422;2023-08-12T04:05:19;101392.88;;;19.32;84.98
64844;BME280;51310;52.198;5.422;2023-08-12T04:07:45;101377.91;;;19.28;85.27
64844;BME280;51310;52.198;5.422;2023-08-12T04:10:11;101388.59;;;19.30;85.25
64844;BME280;51310;52.198;5.422;2023-08-12T04:12:37;101401.16;;;19.41;85.38
64844;BME280;51310;52.198;5.422;2023-08-12T04:15:03;101372.34;;;19.30;85.30
64844;BME280;51310;52.198;5.422;2023-08-12T04:17:31;101367.19;;;19.27;85.54
64844;BME280;51310;52.198;5.422;2023-08-12T04:19:57;101402.44;;;19.37;85.85
64844;BME280;51310;52.198;5.422;2023-08-12T04:22:23;101402.44;;;19.37;85.76
64844;BME280;51310;52.198;5.422;2023-08-12T04:24:49;101404.75;;;19.41;85.83
64844;BME280;51310;52.198;5.422;2023-08-12T04:27:16;101381.75;;;19.35;86.19
64844;BME280;51310;52.198;5.422;2023-08-12T04:29:42;101359.50;;;19.32;86.02
64844;BME280;51310;52.198;5.422;2023-08-12T04:32:08;101387.16;;;19.45;85.86
64844;BME280;51310;52.198;5.422;2023-08-12T04:34:34;101376.75;;;19.41;86.05
64844;BME280;51310;52.198;5.422;2023-08-12T04:37:00;101385.19;;;19.47;86.17
64844;BME280;51310;52.198;5.422;2023-08-12T04:39:26;101370.66;;;19.48;86.45
64844;BME280;51310;52.198;5.422;2023-08-12T04:41:52;101383.19;;;19.49;86.75
64844;BME280;51310;52.198;5.422;2023-08-12T04:44:18;101380.34;;;19.51;86.45
64844;BME280;51310;52.198;5.422;2023-08-12T04:46:44;101365.09;;;19.50;86.95
64844;BME280;51310;52.198;5.422;2023-08-12T04:49:10;101344.38;;;19.49;86.52
64844;BME280;51310;52.198;5.422;2023-08-12T04:51:36;101334.41;;;19.59;86.75
64844;BME280;51310;52.198;5.422;2023-08-12T04:54:02;101347.53;;;19.64;86.62
64844;BME280;51310;52.198;5.422;2023-08-12T04:56:28;101345.28;;;19.69;86.71
64844;BME280;51310;52.198;5.422;2023-08-12T04:58:55;101347.56;;;19.73;86.56
64844;BME280;51310;52.198;5.422;2023-08-12T05:01:21;101349.69;;;19.80;86.74
64844;BME280;51310;52.198;5.422;2023-08-12T05:03:47;101354.50;;;19.86;86.40
64844;BME280;51310;52.198;5.422;2023-08-12T05:06:13;101343.41;;;19.89;86.43
64844;BME280;51310;52.198;5.422;2023-08-12T05:08:39;101338.81;;;19.89;86.43
64844;BME280;51310;52.198;5.422;2023-08-12T05:11:05;101326.84;;;19.82;86.46
64844;BME280;51310;52.198;5.422;2023-08-12T05:13:31;101338.69;;;19.91;86.28
64844;BME280;51310;52.198;5.422;2023-08-12T05:15:57;101318.72;;;19.82;86.10
64844;BME280;51310;52.198;5.422;2023-08-12T05:18:23;101307.72;;;19.84;86.18
64844;BME280;51310;52.198;5.422;2023-08-12T05:20:51;101340.78;;;19.97;86.24
64844;BME280;51310;52.198;5.422;2023-08-12T05:23:20;101338.38;;;19.94;86.11
64844;BME280;51310;52.198;5.422;2023-08-12T05:25:46;101337.81;;;19.90;85.90
64844;BME280;51310;52.198;5.422;2023-08-12T05:28:12;101332.69;;;19.87;86.04
64844;BME280;51310;52.198;5.422;2023-08-12T05:30:38;101338.38;;;19.94;86.10
64844;BME280;51310;52.198;5.422;2023-08-12T05:33:05;101342.97;;;19.93;86.20
64844;BME280;51310;52.198;5.422;2023-08-12T05:35:35;101341.25;;;20.02;86.04
64844;BME280;51310;52.198;5.422;2023-08-12T05:38:01;101330.09;;;19.95;85.95
64844;BME280;51310;52.198;5.422;2023-08-12T05:40:28;101338.66;;;20.01;86.12
64844;BME280;51310;52.198;5.422;2023-08-12T05:42:54;101324.09;;;19.92;86.16
64844;BME280;51310;52.198;5.422;2023-08-12T05:45:19;101334.78;;;20.03;85.67
64844;BME280;51310;52.198;5.422;2023-08-12T05:47:45;101328.38;;;20.04;85.61
64844;BME280;51310;52.198;5.422;2023-08-12T05:50:11;101323.09;;;20.03;85.30
64844;BME280;51310;52.198;5.422;2023-08-12T05:52:37;101344.94;;;20.11;85.27
64844;BME280;51310;52.198;5.422;2023-08-12T05:55:04;101334.94;;;20.11;85.24
64844;BME280;51310;52.198;5.422;2023-08-12T05:57:30;101315.81;;;20.03;85.06
64844;BME280;51310;52.198;5.422;2023-08-12T05:59:57;101342.06;;;20.12;84.84
64844;BME280;51310;52.198;5.422;2023-08-12T06:02:25;101333.47;;;20.17;84.94
64844;BME280;51310;52.198;5.422;2023-08-12T06:04:52;101310.38;;;20.03;84.96
64844;BME280;51310;52.198;5.422;2023-08-12T06:07:17;101318.50;;;20.03;84.81
64844;BME280;51310;52.198;5.422;2023-08-12T06:09:44;101319.53;;;20.02;85.08
64844;BME280;51310;52.198;5.422;2023-08-12T06:12:10;101339.63;;;20.09;85.11
64844;BME280;51310;52.198;5.422;2023-08-12T06:14:38;101323.97;;;19.93;85.30
64844;BME280;51310;52.198;5.422;2023-08-12T06:17:05;101342.94;;;20.03;85.37
64844;BME280;51310;52.198;5.422;2023-08-12T06:19:30;101338.97;;;19.98;85.39
64844;BME280;51310;52.198;5.422;2023-08-12T06:21:56;101345.53;;;19.95;85.67
64844;BME280;51310;52.198;5.422;2023-08-12T06:24:22;101356.66;;;19.92;86.16
64844;BME280;51310;52.198;5.422;2023-08-12T06:26:48;101336.41;;;19.76;86.31
64844;BME280;51310;52.198;5.422;2023-08-12T06:29:14;101351.13;;;19.84;86.44
64844;BME280;51310;52.198;5.422;2023-08-12T06:31:40;101352.13;;;19.73;86.28
64844;BME280;51310;52.198;5.422;2023-08-12T06:34:06;101359.94;;;19.66;86.81
64844;BME280;51310;52.198;5.422;2023-08-12T06:36:32;101346.13;;;19.50;87.04
64844;BME280;51310;52.198;5.422;2023-08-12T06:38:58;101366.78;;;19.61;87.44
64844;BME280;51310;52.198;5.422;2023-08-12T06:41:24;101334.97;;;19.33;87.43
64844;BME280;51310;52.198;5.422;2023-08-12T06:43:50;101355.66;;;19.34;87.64
64844;BME280;51310;52.198;5.422;2023-08-12T06:46:16;101350.06;;;19.26;87.91
64844;BME280;51310;52.198;5.422;2023-08-12T06:48:42;101332.94;;;19.16;88.38
64844;BME280;51310;52.198;5.422;2023-08-12T06:51:08;101346.09;;;19.21;88.38
64844;BME280;51310;52.198;5.422;2023-08-12T06:53:40;101344.78;;;19.15;88.57
64844;BME280;51310;52.198;5.422;2023-08-12T06:56:06;101306.09;;;18.93;88.37
64844;BME280;51310;52.198;5.422;2023-08-12T06:58:32;101314.25;;;19.03;88.64
64844;BME280;51310;52.198;5.422;2023-08-12T07:00:58;101318.53;;;19.06;88.65
64844;BME280;51310;52.198;5.422;2023-08-12T07:03:25;101327.25;;;19.19;88.43
64844;BME280;51310;52.198;5.422;2023-08-12T07:05:53;101318.84;;;19.22;88.58
64844;BME280;51310;52.198;5.422;2023-08-12T07:08:19;101314.13;;;19.24;88.70
64844;BME280;51310;52.198;5.422;2023-08-12T07:10:45;101302.88;;;19.19;88.69
64844;BME280;51310;52.198;5.422;2023-08-12T07:13:11;101314.00;;;19.26;88.84
64844;BME280;51310;52.198;5.422;2023-08-12T07:15:37;101319.00;;;19.30;88.86
64844;BME280;51310;52.198;5.422;2023-08-12T07:18:03;101317.44;;;19.38;88.63
64844;BME280;51310;52.198;5.422;2023-08-12T07:20:30;101317.13;;;19.41;88.46
64844;BME280;51310;52.198;5.422;2023-08-12T07:22:56;101295.59;;;19.29;88.67
64844;BME280;51310;52.198;5.422;2023-08-12T07:25:21;101285.63;;;19.30;88.70
64844;BME280;51310;52.198;5.422;2023-08-12T07:27:48;101307.72;;;19.45;88.84
64844;BME280;51310;52.198;5.422;2023-08-12T07:30:14;101311.00;;;19.48;88.79
64844;BME280;51310;52.198;5.422;2023-08-12T07:32:40;101287.91;;;19.34;88.73
64844;BME280;51310;52.198;5.422;2023-08-12T07:35:07;101305.84;;;19.45;88.99
64844;BME280;51310;52.198;5.422;2023-08-12T07:37:33;101312.56;;;19.51;88.61
64844;BME280;51310;52.198;5.422;2023-08-12T07:39:59;101295.59;;;19.49;88.72
64844;BME280;51310;52.198;5.422;2023-08-12T07:42:26;101286.75;;;19.47;88.76
64844;BME280;51310;52.198;5.422;2023-08-12T07:44:52;101295.88;;;19.55;88.84
64844;BME280;51310;52.198;5.422;2023-08-12T07:47:18;101287.59;;;19.57;88.79
64844;BME280;51310;52.198;5.422;2023-08-12T07:49:44;101292.03;;;19.58;88.89
64844;BME280;51310;52.198;5.422;2023-08-12T07:52:10;101282.75;;;19.51;88.80
64844;BME280;51310;52.198;5.422;2023-08-12T07:54:36;101285.00;;;19.65;88.80
64844;BME280;51310;52.198;5.422;2023-08-12T07:57:02;101272.31;;;19.56;88.81
64844;BME280;51310;52.198;5.422;2023-08-12T07:59:29;101279.31;;;19.68;88.64
64844;BME280;51310;52.198;5.422;2023-08-12T08:01:55;101281.59;;;19.63;88.65
64844;BME280;51310;52.198;5.422;2023-08-12T08:04:20;101289.19;;;19.69;88.73
64844;BME280;51310;52.198;5.422;2023-08-12T08:06:46;101291.16;;;19.67;88.55
64844;BME280;51310;52.198;5.422;2023-08-12T08:09:12;101280.19;;;19.59;88.60
64844;BME280;51310;52.198;5.422;2023-08-12T08:11:38;101291.31;;;19.56;88.49
64844;BME280;51310;52.198;5.422;2023-08-12T08:14:04;101303.28;;;19.63;88.45
64844;BME280;51310;52.198;5.422;2023-08-12T08:16:30;101288.47;;;19.58;88.37
64844;BME280;51310;52.198;5.422;2023-08-12T08:18:56;101307.31;;;19.69;88.34
64844;BME280;51310;52.198;5.422;2023-08-12T08:21:22;101281.88;;;19.60;88.52
64844;BME280;51310;52.198;5.422;2023-08-12T08:23:48;101285.75;;;19.58;88.67
64844;BME280;51310;52.198;5.422;2023-08-12T08:26:13;101297.19;;;19.71;88.34
64844;BME280;51310;52.198;5.422;2023-08-12T08:28:41;101299.03;;;19.70;88.42
64844;BME280;51310;52.198;5.422;2023-08-12T08:31:08;101299.03;;;19.70;88.56
64844;BME280;51310;52.198;5.422;2023-08-12T08:33:34;101297.03;;;19.72;88.42
64844;BME280;51310;52.198;5.422;2023-08-12T08:36:00;101276.34;;;19.71;88.25
64844;BME280;51310;52.198;5.422;2023-08-12T08:38:26;101276.03;;;19.74;88.33
64844;BME280;51310;52.198;5.422;2023-08-12T08:40:52;101281.91;;;19.80;88.42
64844;BME280;51310;52.198;5.422;2023-08-12T08:43:21;101303.13;;;19.94;88.35
64844;BME280;51310;52.198;5.422;2023-08-12T08:45:52;101299.88;;;19.81;87.99
64844;BME280;51310;52.198;5.422;2023-08-12T08:48:22;101308.00;;;19.81;88.29
64844;BME280;51310;52.198;5.422;2023-08-12T08:50:48;101306.28;;;19.60;88.11
64844;BME280;51310;52.198;5.422;2023-08-12T08:53:16;101307.84;;;19.63;88.08
64844;BME280;51310;52.198;5.422;2023-08-12T08:55:44;101318.16;;;19.59;88.46
64844;BME280;51310;52.198;5.422;2023-08-12T08:58:10;101314.13;;;19.53;88.46
64844;BME280;51310;52.198;5.422;2023-08-12T09:00:38;101313.84;;;19.47;88.50
64844;BME280;51310;52.198;5.422;2023-08-12T09:03:05;101320.13;;;19.47;88.76
64844;BME280;51310;52.198;5.422;2023-08-12T09:05:34;101338.78;;;19.02;88.51
64844;BME280;51310;52.198;5.422;2023-08-12T09:08:02;101328.22;;;18.58;88.16
64844;BME280;51310;52.198;5.422;2023-08-12T09:10:32;101340.00;;;18.47;88.18
64844;BME280;51310;52.198;5.422;2023-08-12T09:13:01;101336.81;;;18.12;88.04
64844;BME280;51310;52.198;5.422;2023-08-12T09:15:27;101352.75;;;17.73;87.47
64844;BME280;51310;52.198;5.422;2023-08-12T09:17:53;101330.16;;;17.20;86.89
64844;BME280;51310;52.198;5.422;2023-08-12T09:20:19;101330.78;;;17.01;86.67
64844;BME280;51310;52.198;5.422;2023-08-12T09:22:45;101344.69;;;16.85;87.06
64844;BME280;51310;52.198;5.422;2023-08-12T09:25:21;101347.63;;;16.94;87.39
64844;BME280;51310;52.198;5.422;2023-08-12T09:27:47;101337.56;;;16.96;87.63
64844;BME280;51310;52.198;5.422;2023-08-12T09:30:13;101336.81;;;17.05;87.87
64844;BME280;51310;52.198;5.422;2023-08-12T09:32:39;101321.72;;;17.02;87.92
64844;BME280;51310;52.198;5.422;2023-08-12T09:35:05;101334.09;;;17.16;87.92
64844;BME280;51310;52.198;5.422;2023-08-12T09:37:41;101339.22;;;17.19;87.80
64844;BME280;51310;52.198;5.422;2023-08-12T09:40:08;101348.91;;;17.22;87.41
64844;BME280;51310;52.198;5.422;2023-08-12T09:42:34;101333.38;;;17.03;87.16
64844;BME280;51310;52.198;5.422;2023-08-12T09:45:01;101333.97;;;17.06;87.19
64844;BME280;51310;52.198;5.422;2023-08-12T09:47:27;101361.94;;;17.17;87.01
64844;BME280;51310;52.198;5.422;2023-08-12T09:49:53;101361.56;;;17.21;86.71
64844;BME280;51310;52.198;5.422;2023-08-12T09:52:19;101361.53;;;17.33;86.31
64844;BME280;51310;52.198;5.422;2023-08-12T09:54:44;101360.38;;;17.46;85.03
64844;BME280;51310;52.198;5.422;2023-08-12T09:57:13;101369.00;;;17.73;84.44
64844;BME280;51310;52.198;5.422;2023-08-12T09:59:41;101359.38;;;17.80;83.67
64844;BME280;51310;52.198;5.422;2023-08-12T10:02:14;101375.75;;;17.99;83.22
64844;BME280;51310;52.198;5.422;2023-08-12T10:04:45;101372.38;;;18.07;83.05
64844;BME280;51310;52.198;5.422;2023-08-12T10:07:17;101369.88;;;17.94;82.08
64844;BME280;51310;52.198;5.422;2023-08-12T10:09:44;101387.59;;;18.08;81.66
64844;BME280;51310;52.198;5.422;2023-08-12T10:12:12;101380.84;;;18.14;81.58
64844;BME280;51310;52.198;5.422;2023-08-12T10:14:39;101383.59;;;18.23;81.47
64844;BME280;51310;52.198;5.422;2023-08-12T10:17:05;101365.16;;;18.38;81.03
64844;BME280;51310;52.198;5.422;2023-08-12T10:19:32;101377.06;;;18.57;80.92
64844;BME280;51310;52.198;5.422;2023-08-12T10:21:59;101358.03;;;18.68;79.40
64844;BME280;51310;52.198;5.422;2023-08-12T10:24:29;101378.66;;;18.90;78.85
64844;BME280;51310;52.198;5.422;2023-08-12T10:26:55;101351.16;;;18.95;79.74
64844;BME280;51310;52.198;5.422;2023-08-12T10:29:25;101354.34;;;19.09;79.59
64844;BME280;51310;52.198;5.422;2023-08-12T10:31:51;101386.91;;;19.39;80.03
64844;BME280;51310;52.198;5.422;2023-08-12T10:34:26;101363.22;;;19.60;79.98
64844;BME280;51310;52.198;5.422;2023-08-12T10:36:57;101380.25;;;19.82;79.49
64844;BME280;51310;52.198;5.422;2023-08-12T10:39:29;101353.38;;;19.98;78.88
64844;BME280;51310;52.198;5.422;2023-08-12T10:41:58;101374.28;;;20.35;78.63
64844;BME280;51310;52.198;5.422;2023-08-12T10:44:39;101362.88;;;20.31;75.77
64844;BME280;51310;52.198;5.422;2023-08-12T10:47:15;101373.03;;;20.20;74.87
64844;BME280;51310;52.198;5.422;2023-08-12T10:49:50;101388.34;;;20.01;74.14
64844;BME280;51310;52.198;5.422;2023-08-12T10:52:29;101365.38;;;19.76;74.65
64844;BME280;51310;52.198;5.422;2023-08-12T10:55:19;101385.06;;;20.07;74.91
64844;BME280;51310;52.198;5.422;2023-08-12T10:57:47;101374.63;;;20.12;74.04
64844;BME280;51310;52.198;5.422;2023-08-12T11:00:19;101362.38;;;19.89;72.22
64844;BME280;51310;52.198;5.422;2023-08-12T11:02:56;101360.81;;;19.76;72.93
64844;BME280;51310;52.198;5.422;2023-08-12T11:05:24;101381.53;;;19.78;73.44
64844;BME280;51310;52.198;5.422;2023-08-12T11:08:01;101375.19;;;19.67;73.45
64844;BME280;51310;52.198;5.422;2023-08-12T11:10:32;101378.94;;;19.86;74.36
64844;BME280;51310;52.198;5.422;2023-08-12T11:13:00;101367.38;;;19.93;72.63
64844;BME280;51310;52.198;5.422;2023-08-12T11:15:44;101376.16;;;20.15;72.85
64844;BME280;51310;52.198;5.422;2023-08-12T11:18:14;101384.41;;;20.33;71.29
64844;BME280;51310;52.198;5.422;2023-08-12T11:20:43;101356.59;;;20.21;69.85
64844;BME280;51310;52.198;5.422;2023-08-12T11:23:10;101351.84;;;20.43;70.65
64844;BME280;51310;52.198;5.422;2023-08-12T11:25:38;101367.06;;;20.63;66.79
64844;BME280;51310;52.198;5.422;2023-08-12T11:28:07;101343.78;;;20.61;65.60
64844;BME280;51310;52.198;5.422;2023-08-12T11:30:34;101374.38;;;20.90;65.56
64844;BME280;51310;52.198;5.422;2023-08-12T11:33:01;101373.78;;;20.96;63.83
64844;BME280;51310;52.198;5.422;2023-08-12T11:35:28;101359.97;;;20.80;61.33
64844;BME280;51310;52.198;5.422;2023-08-12T11:37:58;101358.47;;;20.95;61.87
64844;BME280;51310;52.198;5.422;2023-08-12T11:40:26;101368.63;;;20.93;60.91
64844;BME280;51310;52.198;5.422;2023-08-12T11:42:54;101372.44;;;21.00;61.46
64844;BME280;51310;52.198;5.422;2023-08-12T11:45:24;101367.09;;;21.09;62.46
64844;BME280;51310;52.198;5.422;2023-08-12T11:47:51;101350.69;;;21.00;61.03
64844;BME280;51310;52.198;5.422;2023-08-12T11:50:26;101382.28;;;21.29;62.78
64844;BME280;51310;52.198;5.422;2023-08-12T11:52:53;101360.47;;;21.21;61.38
64844;BME280;51310;52.198;5.422;2023-08-12T11:55:22;101357.53;;;21.32;61.36
64844;BME280;51310;52.198;5.422;2023-08-12T11:57:51;101381.25;;;21.58;61.47
64844;BME280;51310;52.198;5.422;2023-08-12T12:00:17;101368.34;;;21.42;60.52
64844;BME280;51310;52.198;5.422;2023-08-12T12:02:54;101355.81;;;21.31;61.26
64844;BME280;51310;52.198;5.422;2023-08-12T12:05:28;101382.19;;;21.49;60.94
64844;BME280;51310;52.198;5.422;2023-08-12T12:07:55;101379.06;;;21.61;61.88
64844;BME280;51310;52.198;5.422;2023-08-12T12:10:30;101378.91;;;21.63;60.61
64844;BME280;51310;52.198;5.422;2023-08-12T12:12:59;101364.69;;;21.69;61.49
64844;BME280;51310;52.198;5.422;2023-08-12T12:15:26;101379.13;;;21.88;62.53
64844;BME280;51310;52.198;5.422;2023-08-12T12:17:52;101361.31;;;21.93;58.58
64844;BME280;51310;52.198;5.422;2023-08-12T12:20:19;101382.66;;;22.06;58.52
64844;BME280;51310;52.198;5.422;2023-08-12T12:22:47;101374.03;;;22.11;60.71
64844;BME280;51310;52.198;5.422;2023-08-12T12:25:16;101380.34;;;22.37;60.00
64844;BME280;51310;52.198;5.422;2023-08-12T12:27:46;101382.78;;;22.40;57.60
64844;BME280;51310;52.198;5.422;2023-08-12T12:30:14;101378.66;;;22.36;57.78
64844;BME280;51310;52.198;5.422;2023-08-12T12:32:42;101382.38;;;22.35;57.59
64844;BME280;51310;52.198;5.422;2023-08-12T12:35:08;101374.88;;;22.29;58.05
64844;BME280;51310;52.198;5.422;2023-08-12T12:37:35;101363.81;;;22.31;58.20
64844;BME280;51310;52.198;5.422;2023-08-12T12:40:02;101387.06;;;22.51;57.15
64844;BME280;51310;52.198;5.422;2023-08-12T12:42:29;101392.63;;;22.68;57.21
64844;BME280;51310;52.198;5.422;2023-08-12T12:44:56;101384.88;;;22.89;57.77
64844;BME280;51310;52.198;5.422;2023-08-12T12:47:22;101379.50;;;23.05;56.85
64844;BME280;51310;52.198;5.422;2023-08-12T12:49:48;101367.59;;;23.06;57.30
64844;BME280;51310;52.198;5.422;2023-08-12T12:52:14;101388.75;;;23.21;55.73
64844;BME280;51310;52.198;5.422;2023-08-12T12:54:39;101375.13;;;23.13;54.34